createdAt,value
2023-02-21T00:00:30.428Z,4.76
2023-02-21T00:03:20.761Z,4.76
2023-02-21T00:06:06.025Z,4.74
2023-02-21T00:08:51.247Z,4.70
2023-02-21T00:11:36.280Z,4.70
2023-02-21T00:14:21.477Z,4.69
2023-02-21T00:17:06.712Z,4.71
2023-02-21T00:19:51.923Z,4.70
2023-02-21T00:22:37.116Z,4.72
2023-02-21T00:25:22.393Z,4.79
2023-02-21T00:28:07.695Z,4.79
2023-02-21T00:30:52.990Z,4.75
2023-02-21T00:33:38.094Z,4.72
2023-02-21T00:36:23.295Z,4.69
2023-02-21T00:39:08.512Z,4.68
2023-02-21T00:41:53.782Z,4.69
2023-02-21T00:44:38.941Z,4.74
2023-02-21T00:47:24.215Z,4.71
2023-02-21T00:53:12.379Z,4.78
2023-02-21T00:55:57.660Z,4.74
2023-02-21T00:58:42.821Z,4.73
2023-02-21T01:01:28.183Z,4.76
2023-02-21T01:04:13.621Z,4.76
2023-02-21T01:06:58.794Z,4.70
2023-02-21T01:09:43.952Z,4.70
2023-02-21T01:12:29.136Z,4.73
2023-02-21T01:15:14.380Z,4.70
2023-02-21T01:17:59.530Z,4.78
2023-02-21T01:20:44.767Z,4.77
2023-02-21T01:23:29.995Z,4.69
2023-02-21T01:26:15.230Z,4.70
2023-02-21T01:29:00.449Z,4.66
2023-02-21T01:31:45.581Z,4.64
2023-02-21T01:34:30.989Z,4.64
2023-02-21T01:37:16.065Z,4.64
2023-02-21T01:40:01.225Z,4.62
2023-02-21T01:42:47.650Z,4.62
2023-02-21T01:45:36.006Z,4.64
2023-02-21T01:48:21.222Z,4.66
2023-02-21T01:51:06.522Z,4.64
2023-02-21T01:53:51.694Z,4.66
2023-02-21T01:56:36.784Z,4.61
2023-02-21T01:59:21.969Z,4.64
2023-02-21T02:02:11.809Z,4.63
2023-02-21T02:04:56.966Z,4.62
2023-02-21T02:07:42.143Z,4.61
2023-02-21T02:10:27.267Z,4.62
2023-02-21T02:12:59.866Z,4.63
2023-02-21T02:15:26.289Z,4.65
2023-02-21T02:18:11.732Z,4.64
2023-02-21T02:20:56.701Z,4.64
2023-02-21T02:23:41.403Z,4.65
2023-02-21T02:26:20.167Z,4.65
2023-02-21T02:28:52.806Z,4.64
2023-02-21T02:31:30.523Z,4.62
2023-02-21T02:33:57.184Z,4.59
2023-02-21T02:36:50.216Z,4.61
2023-02-21T02:39:19.911Z,4.62
2023-02-21T02:41:55.544Z,4.62
2023-02-21T02:48:02.164Z,4.61
2023-02-21T02:50:28.965Z,4.59
2023-02-21T02:52:56.321Z,4.60
2023-02-21T02:55:25.164Z,4.57
2023-02-21T02:57:51.807Z,4.58
2023-02-21T03:00:18.743Z,4.56
2023-02-21T03:02:58.875Z,4.55
2023-02-21T03:05:35.318Z,4.56
2023-02-21T03:08:01.851Z,4.56
2023-02-21T03:10:39.383Z,4.59
2023-02-21T03:13:13.123Z,4.55
2023-02-21T03:15:39.580Z,4.53
2023-02-21T03:18:07.655Z,4.54
2023-02-21T03:20:34.251Z,4.54
2023-02-21T03:23:01.359Z,4.53
2023-02-21T03:25:27.908Z,4.54
2023-02-21T03:27:54.401Z,4.54
2023-02-21T03:30:20.991Z,4.53
2023-02-21T03:32:51.912Z,4.55
2023-02-21T03:35:19.128Z,4.59
2023-02-21T03:37:49.743Z,4.59
2023-02-21T03:40:18.636Z,4.61
2023-02-21T03:42:45.352Z,4.66
2023-02-21T03:45:11.891Z,4.66
2023-02-21T03:47:38.348Z,4.67
2023-02-21T03:50:05.172Z,4.63
2023-02-21T03:52:31.674Z,4.66
2023-02-21T03:55:30.104Z,4.67
2023-02-21T03:57:56.597Z,4.66
2023-02-21T04:00:23.256Z,4.75
2023-02-21T04:02:49.839Z,4.67
2023-02-21T04:05:17.308Z,4.68
2023-02-21T04:07:43.808Z,4.66
2023-02-21T04:10:10.445Z,4.68
2023-02-21T04:12:36.937Z,4.72
2023-02-21T04:15:03.571Z,4.70
2023-02-21T04:17:30.104Z,4.73
2023-02-21T04:19:56.698Z,4.71
2023-02-21T04:22:23.271Z,4.75
2023-02-21T04:24:49.784Z,4.71
2023-02-21T04:27:16.445Z,4.77
2023-02-21T04:29:42.969Z,4.73
2023-02-21T04:32:10.224Z,4.74
2023-02-21T04:34:36.803Z,4.76
2023-02-21T04:37:03.340Z,4.78
2023-02-21T04:39:31.260Z,4.77
2023-02-21T04:41:57.726Z,4.78
2023-02-21T04:44:24.458Z,4.82
2023-02-21T04:46:50.968Z,4.81
2023-02-21T04:49:17.503Z,4.79
2023-02-21T04:51:43.962Z,4.85
2023-02-21T04:54:12.400Z,4.86
2023-02-21T04:56:40.273Z,4.91
2023-02-21T04:59:06.862Z,4.89
2023-02-21T05:01:33.440Z,4.90
2023-02-21T05:04:00.380Z,4.88
2023-02-21T05:06:27.872Z,4.90
2023-02-21T05:08:54.520Z,4.88
2023-02-21T05:11:21.659Z,4.89
2023-02-21T05:13:48.277Z,4.93
2023-02-21T05:16:15.014Z,4.90
2023-02-21T05:18:42.182Z,5.00
2023-02-21T05:21:08.768Z,4.95
2023-02-21T05:23:35.828Z,4.92
2023-02-21T05:26:12.579Z,4.90
2023-02-21T05:28:39.883Z,4.85
2023-02-21T05:31:06.656Z,4.85
2023-02-21T05:33:33.380Z,4.85
2023-02-21T05:36:00.041Z,4.83
2023-02-21T05:38:27.196Z,4.85
2023-02-21T05:40:53.800Z,4.88
2023-02-21T05:43:20.321Z,4.91
2023-02-21T05:45:46.914Z,4.90
2023-02-21T05:48:13.458Z,4.91
2023-02-21T05:50:40.076Z,4.90
2023-02-21T05:53:06.911Z,4.93
2023-02-21T05:55:33.567Z,4.91
2023-02-21T05:58:00.097Z,4.90
2023-02-21T06:00:28.263Z,4.89
2023-02-21T06:02:54.964Z,4.89
2023-02-21T06:05:21.817Z,4.89
2023-02-21T06:07:48.594Z,4.92
2023-02-21T06:10:15.396Z,4.95
2023-02-21T06:12:41.881Z,4.97
2023-02-21T06:15:08.837Z,5.02
2023-02-21T06:17:38.500Z,5.02
2023-02-21T06:20:05.719Z,5.04
2023-02-21T06:22:32.317Z,5.05
2023-02-21T06:24:58.886Z,5.07
2023-02-21T06:27:25.421Z,5.08
2023-02-21T06:29:51.947Z,5.14
2023-02-21T06:32:18.523Z,5.11
2023-02-21T06:34:45.312Z,5.08
2023-02-21T06:37:11.874Z,5.11
2023-02-21T06:39:38.927Z,5.13
2023-02-21T06:42:06.392Z,5.09
2023-02-21T06:44:33.077Z,5.09
2023-02-21T06:46:59.614Z,5.07
2023-02-21T06:49:26.151Z,5.09
2023-02-21T06:51:52.702Z,5.06
2023-02-21T06:54:19.291Z,5.12
2023-02-21T06:56:45.927Z,5.13
2023-02-21T06:59:12.433Z,5.15
2023-02-21T07:01:38.960Z,5.16
2023-02-21T07:04:05.490Z,5.18
2023-02-21T07:06:33.633Z,5.19
2023-02-21T07:09:00.258Z,5.22
2023-02-21T07:11:26.787Z,5.24
2023-02-21T07:13:54.200Z,5.27
2023-02-21T07:16:21.004Z,5.35
2023-02-21T07:18:47.579Z,5.37
2023-02-21T07:21:14.961Z,5.43
2023-02-21T07:23:43.421Z,5.40
2023-02-21T07:26:09.975Z,5.43
2023-02-21T07:28:36.445Z,5.45
2023-02-21T07:31:03.037Z,5.51
2023-02-21T07:33:29.524Z,5.63
2023-02-21T07:35:56.571Z,5.72
2023-02-21T07:38:26.380Z,5.80
2023-02-21T07:40:56.920Z,5.76
2023-02-21T07:43:24.544Z,5.72
2023-02-21T07:45:51.127Z,5.76
2023-02-21T07:48:17.637Z,5.80
2023-02-21T07:50:44.696Z,5.76
2023-02-21T07:53:11.387Z,5.78
2023-02-21T07:55:37.944Z,5.78
2023-02-21T07:58:04.454Z,5.86
2023-02-21T08:00:31.237Z,5.96
2023-02-21T08:02:57.824Z,6.06
2023-02-21T08:05:24.321Z,6.19
2023-02-21T08:07:51.027Z,6.27
2023-02-21T08:10:21.914Z,6.47
2023-02-21T08:12:48.502Z,6.58
2023-02-21T08:15:19.674Z,6.64
2023-02-21T08:17:50.024Z,6.78
2023-02-21T08:20:16.736Z,6.88
2023-02-21T08:22:43.322Z,6.86
2023-02-21T08:25:13.833Z,6.95
2023-02-21T08:27:41.038Z,7.08
2023-02-21T08:30:08.894Z,7.15
2023-02-21T08:32:35.568Z,7.22
2023-02-21T08:35:03.726Z,7.23
2023-02-21T08:37:33.174Z,7.19
2023-02-21T08:39:59.798Z,7.15
2023-02-21T08:42:26.388Z,7.25
2023-02-21T08:44:52.954Z,7.39
2023-02-21T08:47:19.490Z,7.41
2023-02-21T08:49:47.429Z,7.47
2023-02-21T08:52:14.394Z,7.60
2023-02-21T08:54:40.897Z,7.71
2023-02-21T08:57:07.444Z,7.84
2023-02-21T08:59:35.070Z,8.12
2023-02-21T09:02:01.752Z,8.43
2023-02-21T09:04:28.501Z,8.53
2023-02-21T09:06:55.548Z,8.59
2023-02-21T09:09:22.475Z,8.50
2023-02-21T09:11:49.525Z,8.32
2023-02-21T09:14:16.562Z,8.28
2023-02-21T09:16:43.364Z,8.29
2023-02-21T09:19:09.932Z,8.20
2023-02-21T09:21:36.426Z,8.18
2023-02-21T09:24:03.109Z,8.17
2023-02-21T09:26:32.064Z,8.14
2023-02-21T09:28:58.714Z,8.04
2023-02-21T09:31:25.258Z,7.98
2023-02-21T09:33:51.838Z,7.98
2023-02-21T09:36:23.796Z,7.94
2023-02-21T09:38:51.031Z,7.86
2023-02-21T09:41:18.199Z,7.76
2023-02-21T09:43:46.081Z,7.76
2023-02-21T09:46:31.414Z,7.81
2023-02-21T09:48:58.004Z,7.94
2023-02-21T09:51:25.271Z,8.06
2023-02-21T09:53:51.879Z,8.19
2023-02-21T09:56:21.529Z,8.02
2023-02-21T09:58:48.073Z,8.05
2023-02-21T10:01:26.004Z,7.99
2023-02-21T10:03:55.531Z,8.09
2023-02-21T10:06:25.228Z,8.20
2023-02-21T10:08:57.777Z,8.09
2023-02-21T10:11:37.440Z,8.00
2023-02-21T10:14:23.737Z,8.10
2023-02-21T10:16:58.738Z,8.03
2023-02-21T10:19:51.693Z,8.08
2023-02-21T10:22:25.864Z,8.18
2023-02-21T10:24:52.547Z,8.22
2023-02-21T10:27:20.419Z,8.19
2023-02-21T10:29:56.921Z,8.32
2023-02-21T10:32:24.709Z,8.30
2023-02-21T10:34:51.322Z,8.33
2023-02-21T10:37:36.154Z,8.27
2023-02-21T10:40:07.626Z,8.32
2023-02-21T10:42:39.804Z,8.34
2023-02-21T10:45:06.615Z,8.39
2023-02-21T10:47:42.268Z,8.52
2023-02-21T10:50:09.436Z,8.67
2023-02-21T10:52:46.941Z,8.78
2023-02-21T10:55:31.942Z,8.96
2023-02-21T10:57:59.814Z,9.08
2023-02-21T11:00:48.580Z,9.06
2023-02-21T11:03:15.177Z,9.09
2023-02-21T11:05:45.405Z,9.04
2023-02-21T11:08:11.896Z,9.07
2023-02-21T11:10:42.543Z,9.24
2023-02-21T11:13:16.921Z,9.24
2023-02-21T11:15:44.117Z,9.34
2023-02-21T11:18:13.690Z,9.30
2023-02-21T11:20:40.220Z,9.10
2023-02-21T11:23:17.889Z,9.03
2023-02-21T11:25:44.402Z,8.91
2023-02-21T11:28:10.947Z,8.77
2023-02-21T11:30:38.215Z,8.79
2023-02-21T11:33:05.312Z,8.86
2023-02-21T11:35:36.427Z,8.90
2023-02-21T11:38:05.025Z,8.95
2023-02-21T11:40:33.130Z,9.05
2023-02-21T11:43:19.768Z,9.07
2023-02-21T11:45:53.638Z,9.03
2023-02-21T11:48:20.852Z,9.02
2023-02-21T11:50:49.896Z,8.86
2023-02-21T11:53:23.949Z,8.81
2023-02-21T11:56:02.556Z,8.76
2023-02-21T11:58:31.717Z,8.60
2023-02-21T12:01:02.560Z,8.53
2023-02-21T12:03:36.255Z,8.51
2023-02-21T12:06:08.767Z,8.60
2023-02-21T12:08:44.573Z,8.61
2023-02-21T12:11:11.171Z,8.78
2023-02-21T12:13:40.686Z,8.81
2023-02-21T12:16:25.578Z,8.88
2023-02-21T12:19:07.391Z,8.98
2023-02-21T12:21:38.129Z,8.95
2023-02-21T12:24:24.345Z,8.87
2023-02-21T12:27:04.525Z,8.83
2023-02-21T12:29:31.108Z,8.82
2023-02-21T12:31:57.661Z,8.89
2023-02-21T12:34:27.252Z,9.00
2023-02-21T12:36:56.865Z,9.04
2023-02-21T12:39:42.198Z,9.15
2023-02-21T12:42:11.969Z,9.21
2023-02-21T12:45:00.836Z,9.09
2023-02-21T12:47:33.026Z,8.94
2023-02-21T12:50:13.731Z,8.53
2023-02-21T12:52:52.067Z,8.40
2023-02-21T12:55:20.978Z,8.45
2023-02-21T12:57:56.566Z,8.30
2023-02-21T13:00:27.552Z,8.43
2023-02-21T13:02:58.622Z,8.38
2023-02-21T13:05:33.736Z,8.59
2023-02-21T13:08:01.519Z,8.70
2023-02-21T13:10:29.594Z,8.88
2023-02-21T13:13:01.468Z,9.00
2023-02-21T13:15:29.747Z,9.16
2023-02-21T13:17:59.302Z,9.37
2023-02-21T13:20:26.605Z,9.61
2023-02-21T13:22:56.148Z,9.84
2023-02-21T13:25:37.882Z,10.00
2023-02-21T13:28:10.423Z,9.79
2023-02-21T13:30:49.162Z,9.76
2023-02-21T13:33:24.804Z,9.62
2023-02-21T13:35:51.402Z,9.38
2023-02-21T13:38:18.496Z,9.33
2023-02-21T13:40:50.981Z,9.36
2023-02-21T13:43:30.707Z,9.33
2023-02-21T13:46:16.148Z,9.43
2023-02-21T13:48:42.651Z,9.41
2023-02-21T13:51:09.159Z,9.21
2023-02-21T13:53:55.624Z,9.18
2023-02-21T13:56:24.745Z,9.17
2023-02-21T13:58:51.436Z,9.07
2023-02-21T14:01:17.973Z,9.09
2023-02-21T14:03:45.480Z,9.01
2023-02-21T14:06:12.420Z,8.81
2023-02-21T14:08:46.429Z,8.83
2023-02-21T14:11:20.796Z,8.80
2023-02-21T14:13:47.211Z,8.74
2023-02-21T14:16:14.631Z,8.85
2023-02-21T14:18:53.851Z,9.03
2023-02-21T14:21:37.388Z,9.22
2023-02-21T14:24:09.822Z,9.33
2023-02-21T14:26:39.446Z,9.53
2023-02-21T14:29:08.990Z,9.72
2023-02-21T14:31:48.582Z,9.77
2023-02-21T14:34:15.574Z,9.97
2023-02-21T14:36:42.114Z,9.98
2023-02-21T14:39:08.678Z,10.00
2023-02-21T14:41:52.889Z,9.99
2023-02-21T14:44:23.800Z,10.14
2023-02-21T14:46:50.302Z,10.02
2023-02-21T14:49:35.375Z,9.82
2023-02-21T14:52:21.962Z,9.67
2023-02-21T14:55:00.649Z,9.79
2023-02-21T14:57:35.187Z,9.92
2023-02-21T15:00:13.916Z,10.06
2023-02-21T15:02:43.446Z,10.07
2023-02-21T15:05:28.731Z,10.27
2023-02-21T15:07:57.560Z,10.52
2023-02-21T15:10:25.602Z,10.53
2023-02-21T15:12:56.075Z,10.64
2023-02-21T15:15:30.327Z,10.65
2023-02-21T15:18:09.091Z,10.40
2023-02-21T15:20:36.793Z,10.07
2023-02-21T15:23:10.392Z,9.87
2023-02-21T15:25:36.912Z,9.98
2023-02-21T15:28:04.830Z,10.06
2023-02-21T15:30:32.930Z,10.13
2023-02-21T15:33:06.064Z,10.18
2023-02-21T15:35:33.881Z,10.22
2023-02-21T15:38:00.671Z,10.13
2023-02-21T15:40:27.206Z,9.90
2023-02-21T15:42:53.735Z,9.56
2023-02-21T15:45:22.346Z,9.34
2023-02-21T15:47:48.911Z,9.19
2023-02-21T15:50:32.744Z,9.10
2023-02-21T15:53:11.318Z,9.08
2023-02-21T15:55:37.797Z,9.01
2023-02-21T15:58:04.337Z,8.85
2023-02-21T16:00:30.885Z,8.67
2023-02-21T16:03:16.212Z,8.47
2023-02-21T16:05:42.739Z,8.32
2023-02-21T16:08:11.369Z,8.20
2023-02-21T16:10:39.841Z,8.05
2023-02-21T16:13:06.380Z,7.95
2023-02-21T16:15:33.476Z,7.81
2023-02-21T16:18:03.447Z,7.56
2023-02-21T16:20:31.321Z,7.38
2023-02-21T16:23:16.564Z,7.22
2023-02-21T16:25:56.277Z,7.13
2023-02-21T16:28:22.827Z,7.02
2023-02-21T16:30:49.438Z,6.84
2023-02-21T16:33:15.927Z,6.72
2023-02-21T16:35:42.706Z,6.59
2023-02-21T16:38:17.270Z,6.43
2023-02-21T16:40:43.852Z,6.28
2023-02-21T16:43:15.893Z,6.11
2023-02-21T16:45:42.592Z,5.94
2023-02-21T16:48:14.081Z,5.77
2023-02-21T16:50:40.721Z,5.65
2023-02-21T16:53:07.474Z,5.53
2023-02-21T16:55:33.977Z,5.41
2023-02-21T16:58:02.049Z,5.31
2023-02-21T17:00:28.596Z,5.20
2023-02-21T17:02:55.180Z,5.05
2023-02-21T17:05:21.938Z,4.96
2023-02-21T17:07:49.612Z,4.88
2023-02-21T17:10:16.284Z,4.82
2023-02-21T17:12:42.821Z,4.71
2023-02-21T17:15:11.116Z,4.63
2023-02-21T17:17:38.252Z,4.57
2023-02-21T17:20:05.617Z,4.52
2023-02-21T17:22:32.237Z,4.40
2023-02-21T17:24:58.847Z,4.33
2023-02-21T17:27:25.406Z,4.26
2023-02-21T17:29:51.956Z,4.21
2023-02-21T17:32:18.609Z,4.18
2023-02-21T17:34:45.151Z,4.13
2023-02-21T17:37:11.734Z,4.02
2023-02-21T17:39:38.281Z,4.05
2023-02-21T17:42:04.872Z,3.94
2023-02-21T17:44:31.698Z,3.74
2023-02-21T17:46:58.173Z,3.72
2023-02-21T17:49:26.483Z,3.67
2023-02-21T17:51:53.279Z,3.65
2023-02-21T17:54:21.322Z,3.59
2023-02-21T17:56:47.957Z,3.59
2023-02-21T17:59:14.886Z,3.58
2023-02-21T18:01:41.454Z,3.56
2023-02-21T18:04:08.337Z,3.52
2023-02-21T18:06:34.869Z,3.47
2023-02-21T18:09:02.121Z,3.34
2023-02-21T18:11:28.650Z,3.32
2023-02-21T18:13:55.847Z,3.24
2023-02-21T18:16:22.403Z,3.20
2023-02-21T18:18:49.180Z,3.14
2023-02-21T18:21:16.248Z,3.08
2023-02-21T18:23:43.623Z,3.06
2023-02-21T18:26:10.186Z,3.04
2023-02-21T18:28:36.749Z,3.03
2023-02-21T18:31:03.452Z,3.08
2023-02-21T18:33:30.868Z,3.12
2023-02-21T18:35:57.670Z,3.18
2023-02-21T18:38:24.397Z,3.19
2023-02-21T18:40:51.203Z,3.13
2023-02-21T18:43:19.416Z,3.03
2023-02-21T18:45:46.767Z,3.00
2023-02-21T18:48:13.753Z,3.09
2023-02-21T18:50:40.298Z,3.12
2023-02-21T18:53:06.847Z,3.18
2023-02-21T18:55:33.507Z,3.17
2023-02-21T18:58:00.217Z,3.15
2023-02-21T19:00:27.025Z,3.13
2023-02-21T19:02:53.519Z,3.21
2023-02-21T19:05:21.583Z,3.21
2023-02-21T19:07:48.074Z,3.22
2023-02-21T19:10:15.849Z,3.28
2023-02-21T19:12:42.367Z,3.33
2023-02-21T19:15:09.038Z,3.32
2023-02-21T19:17:35.713Z,3.36
2023-02-21T19:20:02.664Z,3.36
2023-02-21T19:22:29.484Z,3.43
2023-02-21T19:24:57.485Z,3.51
2023-02-21T19:27:24.053Z,3.57
2023-02-21T19:29:51.289Z,3.59
2023-02-21T19:32:19.330Z,3.63
2023-02-21T19:34:50.213Z,3.62
2023-02-21T19:37:17.001Z,3.62
2023-02-21T19:39:43.760Z,3.63
2023-02-21T19:42:11.084Z,3.58
2023-02-21T19:44:37.712Z,3.56
2023-02-21T19:47:04.460Z,3.58
2023-02-21T19:49:30.928Z,3.63
2023-02-21T19:51:58.264Z,3.68
2023-02-21T19:54:25.255Z,3.73
2023-02-21T19:56:51.783Z,3.76
2023-02-21T19:59:18.945Z,3.85
2023-02-21T20:01:45.474Z,3.92
2023-02-21T20:04:12.026Z,3.95
2023-02-21T20:06:38.729Z,3.95
2023-02-21T20:09:06.187Z,3.98
2023-02-21T20:11:32.699Z,4.02
2023-02-21T20:13:59.842Z,4.01
2023-02-21T20:16:28.207Z,4.00
2023-02-21T20:18:54.956Z,4.01
2023-02-21T20:21:22.362Z,4.01
2023-02-21T20:23:49.084Z,3.99
2023-02-21T20:26:15.862Z,3.97
2023-02-21T20:28:42.459Z,3.97
2023-02-21T20:31:10.966Z,3.98
2023-02-21T20:33:37.842Z,3.94
2023-02-21T20:36:04.766Z,3.93
2023-02-21T20:38:31.329Z,3.94
2023-02-21T20:40:58.092Z,3.94
2023-02-21T20:43:25.563Z,3.90
2023-02-21T20:45:52.621Z,3.89
2023-02-21T20:48:19.193Z,3.89
2023-02-21T20:50:46.442Z,3.90
2023-02-21T20:53:13.102Z,3.92
2023-02-21T20:55:40.305Z,3.91
2023-02-21T20:58:06.904Z,3.92
2023-02-21T21:00:36.410Z,3.90
2023-02-21T21:03:03.994Z,3.89
2023-02-21T21:05:30.867Z,3.86
2023-02-21T21:07:58.195Z,3.81
2023-02-21T21:10:24.942Z,3.77
2023-02-21T21:12:51.659Z,3.77
2023-02-21T21:15:19.385Z,3.76
2023-02-21T21:17:46.712Z,3.69
2023-02-21T21:20:17.688Z,3.65
2023-02-21T21:22:44.450Z,3.63
2023-02-21T21:25:11.175Z,3.63
2023-02-21T21:27:39.868Z,3.61
2023-02-21T21:30:07.457Z,3.58
2023-02-21T21:32:34.651Z,3.61
2023-02-21T21:35:05.445Z,3.58
2023-02-21T21:37:32.031Z,3.49
2023-02-21T21:39:58.554Z,3.40
2023-02-21T21:42:26.411Z,3.34
2023-02-21T21:44:56.372Z,3.32
2023-02-21T21:47:23.389Z,3.34
2023-02-21T21:49:50.234Z,3.34
2023-02-21T21:52:18.291Z,3.37
2023-02-21T21:54:45.673Z,3.34
2023-02-21T21:57:18.779Z,3.30
2023-02-21T21:59:45.410Z,3.24
2023-02-21T22:02:11.889Z,3.25
2023-02-21T22:04:38.559Z,3.24
2023-02-21T22:07:05.506Z,3.20
2023-02-21T22:09:32.050Z,3.15
2023-02-21T22:11:58.536Z,3.11
2023-02-21T22:14:25.181Z,3.10
2023-02-21T22:16:52.321Z,3.12
2023-02-21T22:19:22.437Z,3.13
2023-02-21T22:21:49.157Z,3.09
2023-02-21T22:24:20.909Z,3.07
2023-02-21T22:26:47.473Z,3.09
2023-02-21T22:29:18.445Z,3.09
2023-02-21T22:31:46.454Z,3.08
2023-02-21T22:34:23.137Z,3.03
2023-02-21T22:36:53.643Z,3.00
2023-02-21T22:39:20.380Z,2.94
2023-02-21T22:41:48.864Z,2.89
2023-02-21T22:44:15.943Z,2.84
2023-02-21T22:46:43.511Z,2.80
2023-02-21T22:49:10.403Z,2.73
2023-02-21T22:51:36.969Z,2.65
2023-02-21T22:54:03.839Z,2.56
2023-02-21T22:56:30.693Z,2.53
2023-02-21T22:58:57.790Z,2.49
2023-02-21T23:01:26.613Z,2.47
2023-02-21T23:03:53.594Z,2.39
2023-02-21T23:06:20.312Z,2.40
2023-02-21T23:08:47.784Z,2.38
2023-02-21T23:11:18.491Z,2.35
2023-02-21T23:13:46.562Z,2.28
2023-02-21T23:16:18.514Z,2.22
2023-02-21T23:18:45.037Z,2.21
2023-02-21T23:21:11.509Z,2.16
2023-02-21T23:23:38.173Z,2.10
2023-02-21T23:26:08.770Z,2.09
2023-02-21T23:28:35.442Z,2.05
2023-02-21T23:31:02.035Z,2.03
2023-02-21T23:33:30.142Z,1.99
2023-02-21T23:35:56.983Z,1.94
2023-02-21T23:38:24.142Z,1.89
2023-02-21T23:40:56.394Z,1.84
2023-02-21T23:43:25.289Z,1.83
2023-02-21T23:45:52.445Z,1.80
2023-02-21T23:48:19.029Z,1.77
2023-02-21T23:50:46.615Z,1.77
2023-02-21T23:53:15.305Z,1.75
2023-02-21T23:55:42.154Z,1.78
2023-02-21T23:58:10.736Z,1.70
